createdAt,value
2019-02-27T00:00:04.557Z,69.12
2019-02-27T00:01:03.390Z,68.91
2019-02-27T00:02:01.417Z,68.88
2019-02-27T00:03:03.392Z,69.92
2019-02-27T00:04:03.422Z,70.33
2019-02-27T00:05:02.885Z,70.05
2019-02-27T00:06:02.887Z,69.53
2019-02-27T00:07:02.895Z,68.91
2019-02-27T00:08:02.889Z,68.56
2019-02-27T00:09:02.898Z,68.46
2019-02-27T00:10:05.858Z,68.56
2019-02-27T00:11:02.890Z,68.35
2019-02-27T00:12:02.890Z,69.71
2019-02-27T00:13:02.885Z,68.35
2019-02-27T00:14:02.902Z,68.35
2019-02-27T00:15:05.051Z,68.46
2019-02-27T00:16:02.929Z,68.22
2019-02-27T00:17:02.887Z,68.43
2019-02-27T00:18:02.887Z,68.12
2019-02-27T00:19:02.894Z,67.73
2019-02-27T00:20:05.061Z,67.49
2019-02-27T00:21:02.883Z,67.52
2019-02-27T00:22:02.921Z,67.60
2019-02-27T00:23:02.885Z,67.80
2019-02-27T00:24:02.896Z,67.91
2019-02-27T00:25:03.424Z,67.60
2019-02-27T00:26:02.887Z,66.45
2019-02-27T00:27:02.885Z,66.87
2019-02-27T00:28:02.919Z,66.87
2019-02-27T00:29:02.893Z,67.80
2019-02-27T00:30:05.608Z,68.12
2019-02-27T00:31:02.893Z,68.12
2019-02-27T00:32:02.887Z,68.32
2019-02-27T00:33:02.892Z,68.32
2019-02-27T00:34:02.930Z,68.01
2019-02-27T00:35:06.420Z,68.25
2019-02-27T00:36:02.890Z,68.22
2019-02-27T00:37:02.897Z,68.22
2019-02-27T00:38:02.887Z,67.49
2019-02-27T00:39:02.885Z,67.80
2019-02-27T00:40:05.299Z,68.01
2019-02-27T00:41:02.884Z,68.32
2019-02-27T00:42:01.001Z,68.53
2019-02-27T00:43:02.894Z,68.15
2019-02-27T00:44:02.887Z,67.42
2019-02-27T00:45:06.852Z,67.63
2019-02-27T00:46:02.956Z,68.04
2019-02-27T00:47:02.882Z,68.46
2019-02-27T00:48:02.880Z,68.84
2019-02-27T00:49:02.880Z,69.50
2019-02-27T00:50:05.795Z,69.71
2019-02-27T00:51:02.883Z,70.47
2019-02-27T00:52:02.914Z,70.43
2019-02-27T00:53:02.882Z,70.26
2019-02-27T00:54:02.389Z,70.57
2019-02-27T00:55:04.685Z,70.99
2019-02-27T00:56:02.382Z,71.61
2019-02-27T00:57:02.383Z,71.61
2019-02-27T00:58:02.408Z,72.17
2019-02-27T00:59:02.381Z,72.27
2019-02-27T01:00:06.277Z,72.69
2019-02-27T01:01:02.393Z,72.58
2019-02-27T01:02:02.384Z,72.89
2019-02-27T01:03:02.379Z,73.24
2019-02-27T01:04:02.552Z,72.83
2019-02-27T01:05:00.790Z,73.45
2019-02-27T01:06:02.391Z,73.55
2019-02-27T01:07:02.378Z,74.11
2019-02-27T01:08:02.378Z,74.29
2019-02-27T01:09:03.885Z,74.01
2019-02-27T01:10:02.444Z,73.90
2019-02-27T01:11:02.380Z,72.93
2019-02-27T01:12:02.393Z,72.51
2019-02-27T01:13:02.379Z,72.75
2019-02-27T01:14:04.138Z,72.20
2019-02-27T01:15:02.391Z,72.20
2019-02-27T01:16:02.406Z,71.47
2019-02-27T01:17:02.380Z,71.99
2019-02-27T01:18:02.381Z,71.47
2019-02-27T01:19:04.650Z,72.20
2019-02-27T01:20:02.394Z,72.62
2019-02-27T01:21:02.378Z,72.41
2019-02-27T01:22:00.602Z,72.72
2019-02-27T01:23:02.380Z,72.83
2019-02-27T01:24:02.389Z,71.99
2019-02-27T01:25:02.388Z,71.89
2019-02-27T01:26:02.379Z,72.51
2019-02-27T01:27:04.628Z,72.41
2019-02-27T01:28:02.404Z,72.30
2019-02-27T01:29:02.413Z,71.96
2019-02-27T01:30:02.397Z,70.09
2019-02-27T01:31:02.391Z,70.50
2019-02-27T01:32:02.382Z,70.47
2019-02-27T01:33:04.189Z,70.19
2019-02-27T01:34:02.412Z,69.95
2019-02-27T01:35:02.384Z,70.26
2019-02-27T01:36:02.411Z,69.43
2019-02-27T01:37:02.377Z,68.91
2019-02-27T01:38:05.042Z,69.12
2019-02-27T01:39:02.242Z,68.77
2019-02-27T01:40:02.393Z,68.77
2019-02-27T01:41:02.386Z,69.81
2019-02-27T01:42:01.878Z,68.15
2019-02-27T01:43:05.239Z,70.05
2019-02-27T01:44:01.876Z,69.95
2019-02-27T01:45:01.876Z,69.84
2019-02-27T01:46:01.919Z,69.84
2019-02-27T01:47:02.889Z,70.09
2019-02-27T01:48:01.878Z,70.26
2019-02-27T01:49:01.879Z,70.40
2019-02-27T01:50:01.876Z,70.29
2019-02-27T01:51:01.890Z,70.61
2019-02-27T01:52:02.229Z,70.50
2019-02-27T01:53:01.878Z,70.61
2019-02-27T01:54:01.890Z,70.19
2019-02-27T01:55:01.879Z,70.32
2019-02-27T01:56:01.896Z,70.53
2019-02-27T01:57:02.913Z,71.47
2019-02-27T01:58:01.909Z,70.95
2019-02-27T01:59:01.874Z,70.95
2019-02-27T02:00:01.876Z,71.26
2019-02-27T02:01:01.888Z,71.58
2019-02-27T02:02:01.078Z,72.75
2019-02-27T02:03:01.878Z,72.20
2019-02-27T02:04:01.172Z,72.83
2019-02-27T02:05:01.876Z,73.07
2019-02-27T02:06:01.890Z,73.49
2019-02-27T02:07:04.102Z,73.59
2019-02-27T02:08:01.876Z,73.38
2019-02-27T02:09:01.873Z,73.90
2019-02-27T02:10:01.908Z,74.01
2019-02-27T02:11:02.141Z,74.15
2019-02-27T02:12:01.874Z,74.32
2019-02-27T02:13:01.878Z,74.77
2019-02-27T02:14:01.908Z,75.15
2019-02-27T02:15:01.875Z,75.40
2019-02-27T02:16:01.904Z,75.50
2019-02-27T02:17:01.875Z,75.71
2019-02-27T02:18:01.876Z,75.92
2019-02-27T02:18:59.997Z,76.06
2019-02-27T02:20:01.873Z,76.06
2019-02-27T02:21:01.931Z,75.92
2019-02-27T02:22:01.917Z,76.02
2019-02-27T02:23:01.890Z,75.71
2019-02-27T02:24:01.873Z,75.32
2019-02-27T02:25:01.876Z,75.40
2019-02-27T02:26:01.926Z,75.50
2019-02-27T02:27:01.882Z,75.71
2019-02-27T02:28:01.925Z,75.50
2019-02-27T02:29:01.874Z,75.50
2019-02-27T02:30:01.873Z,75.08
2019-02-27T02:31:04.921Z,75.32
2019-02-27T02:32:01.380Z,75.40
2019-02-27T02:33:01.386Z,75.40
2019-02-27T02:34:05.156Z,75.29
2019-02-27T02:35:01.376Z,75.18
2019-02-27T02:36:01.375Z,75.29
2019-02-27T02:37:02.522Z,75.29
2019-02-27T02:38:01.372Z,75.40
2019-02-27T02:39:01.381Z,74.95
2019-02-27T02:40:01.411Z,75.18
2019-02-27T02:41:01.377Z,75.29
2019-02-27T02:41:59.755Z,74.66
2019-02-27T02:43:03.118Z,74.35
2019-02-27T02:44:01.384Z,74.25
2019-02-27T02:45:01.371Z,73.69
2019-02-27T02:46:01.404Z,73.69
2019-02-27T02:47:01.373Z,73.90
2019-02-27T02:48:01.374Z,73.80
2019-02-27T02:49:06.495Z,74.52
2019-02-27T02:50:02.396Z,74.95
2019-02-27T02:51:01.371Z,75.05
2019-02-27T02:52:04.711Z,75.05
2019-02-27T02:53:01.372Z,75.15
2019-02-27T02:54:02.206Z,75.36
2019-02-27T02:55:01.385Z,74.52
2019-02-27T02:56:01.376Z,74.01
2019-02-27T02:57:01.960Z,74.32
2019-02-27T02:58:01.390Z,74.32
2019-02-27T02:58:59.584Z,74.11
2019-02-27T03:00:01.898Z,74.32
2019-02-27T03:01:01.420Z,74.35
2019-02-27T03:02:01.370Z,74.35
2019-02-27T03:03:01.965Z,74.87
2019-02-27T03:04:01.408Z,74.77
2019-02-27T03:05:01.377Z,74.77
2019-02-27T03:06:01.374Z,74.66
2019-02-27T03:07:01.387Z,74.77
2019-02-27T03:08:01.369Z,75.18
2019-02-27T03:09:01.372Z,75.18
2019-02-27T03:10:07.027Z,75.53
2019-02-27T03:11:02.371Z,75.50
2019-02-27T03:12:01.378Z,75.71
2019-02-27T03:13:05.807Z,76.26
2019-02-27T03:14:02.377Z,76.06
2019-02-27T03:15:01.370Z,75.95
2019-02-27T03:16:04.080Z,76.06
2019-02-27T03:17:01.370Z,76.06
2019-02-27T03:18:00.882Z,75.92
2019-02-27T03:19:04.773Z,76.23
2019-02-27T03:20:01.872Z,76.57
2019-02-27T03:21:00.870Z,76.47
2019-02-27T03:22:03.746Z,76.43
2019-02-27T03:23:00.880Z,76.65
2019-02-27T03:24:00.868Z,75.71
2019-02-27T03:25:04.038Z,76.23
2019-02-27T03:26:00.883Z,76.06
2019-02-27T03:27:00.869Z,76.54
2019-02-27T03:28:04.691Z,76.02
2019-02-27T03:29:00.884Z,76.26
2019-02-27T03:30:00.873Z,76.33
2019-02-27T03:31:00.874Z,76.54
2019-02-27T03:32:01.406Z,76.26
2019-02-27T03:33:00.872Z,75.81
2019-02-27T03:34:08.148Z,75.50
2019-02-27T03:35:01.903Z,74.15
2019-02-27T03:36:03.333Z,70.74
2019-02-27T03:37:00.867Z,68.84
2019-02-27T03:38:00.871Z,66.48
2019-02-27T03:39:00.260Z,64.17
2019-02-27T03:40:00.927Z,62.13
2019-02-27T03:41:00.875Z,61.04
2019-02-27T03:42:00.869Z,60.08
2019-02-27T03:43:00.877Z,58.73
2019-02-27T03:44:00.112Z,57.95
2019-02-27T03:45:00.871Z,57.01
2019-02-27T03:46:03.061Z,56.57
2019-02-27T03:47:01.877Z,56.16
2019-02-27T03:48:00.871Z,55.41
2019-02-27T03:49:03.825Z,55.41
2019-02-27T03:50:00.866Z,55.10
2019-02-27T03:51:00.867Z,54.58
2019-02-27T03:52:01.422Z,54.86
2019-02-27T03:53:00.873Z,54.43
2019-02-27T03:54:00.868Z,53.80
2019-02-27T03:55:00.876Z,52.87
2019-02-27T03:55:59.876Z,53.26
2019-02-27T03:57:00.866Z,52.64
2019-02-27T03:58:00.901Z,51.92
2019-02-27T03:59:05.636Z,52.44
2019-02-27T04:00:01.866Z,52.41
2019-02-27T04:01:00.880Z,51.79
2019-02-27T04:02:05.810Z,52.41
2019-02-27T04:03:01.878Z,52.10
2019-02-27T04:04:00.897Z,52.10
2019-02-27T04:05:05.409Z,52.20
2019-02-27T04:06:01.866Z,51.79
2019-02-27T04:07:00.372Z,51.48
2019-02-27T04:08:07.236Z,51.48
2019-02-27T04:09:01.364Z,50.65
2019-02-27T04:10:00.388Z,51.56
2019-02-27T04:11:05.533Z,50.55
2019-02-27T04:12:01.364Z,50.94
2019-02-27T04:13:00.363Z,51.56
2019-02-27T04:14:04.810Z,50.94
2019-02-27T04:15:01.364Z,51.15
2019-02-27T04:16:00.394Z,51.04
2019-02-27T04:17:05.463Z,50.73
2019-02-27T04:18:01.365Z,50.63
2019-02-27T04:19:03.047Z,50.40
2019-02-27T04:20:01.383Z,50.50
2019-02-27T04:21:00.373Z,50.50
2019-02-27T04:22:01.123Z,49.78
2019-02-27T04:23:00.363Z,49.99
2019-02-27T04:24:00.365Z,49.68
2019-02-27T04:25:00.382Z,49.78
2019-02-27T04:26:05.278Z,49.26
2019-02-27T04:27:01.376Z,48.75
2019-02-27T04:28:00.391Z,49.04
2019-02-27T04:29:04.148Z,49.37
2019-02-27T04:30:01.371Z,49.57
2019-02-27T04:31:00.386Z,49.55
2019-02-27T04:32:00.370Z,49.68
2019-02-27T04:33:00.364Z,49.55
2019-02-27T04:34:01.255Z,49.37
2019-02-27T04:35:00.377Z,48.83
2019-02-27T04:35:58.566Z,49.04
2019-02-27T04:37:00.379Z,49.78
2019-02-27T04:38:00.364Z,48.95
2019-02-27T04:39:02.425Z,49.34
2019-02-27T04:40:00.416Z,49.24
2019-02-27T04:41:00.364Z,49.26
2019-02-27T04:42:00.379Z,49.57
2019-02-27T04:43:00.368Z,49.88
2019-02-27T04:44:00.364Z,50.29
2019-02-27T04:45:00.387Z,49.99
2019-02-27T04:46:00.369Z,49.68
2019-02-27T04:47:00.361Z,49.99
2019-02-27T04:48:00.376Z,50.20
2019-02-27T04:49:04.098Z,49.05
2019-02-27T04:50:00.361Z,49.68
2019-02-27T04:51:00.450Z,49.65
2019-02-27T04:52:00.367Z,49.37
2019-02-27T04:53:00.376Z,48.83
2019-02-27T04:54:00.363Z,49.37
2019-02-27T04:54:59.875Z,48.93
2019-02-27T04:55:59.863Z,49.24
2019-02-27T04:56:59.889Z,48.83
2019-02-27T04:57:59.888Z,49.88
2019-02-27T04:58:58.324Z,49.78
2019-02-27T04:59:59.860Z,49.26
2019-02-27T05:00:59.862Z,49.14
2019-02-27T05:01:59.875Z,49.26
2019-02-27T05:02:59.899Z,49.24
2019-02-27T05:04:01.574Z,49.34
2019-02-27T05:04:59.862Z,49.24
2019-02-27T05:05:59.863Z,49.14
2019-02-27T05:06:59.860Z,49.24
2019-02-27T05:07:59.875Z,49.76
2019-02-27T05:09:00.210Z,49.47
2019-02-27T05:09:59.860Z,49.04
2019-02-27T05:10:59.862Z,49.37
2019-02-27T05:11:59.872Z,50.09
2019-02-27T05:12:59.873Z,50.92
2019-02-27T05:13:59.888Z,50.60
2019-02-27T05:15:00.861Z,50.73
2019-02-27T05:15:58.146Z,51.15
2019-02-27T05:16:59.869Z,51.25
2019-02-27T05:17:59.870Z,51.68
2019-02-27T05:19:03.593Z,50.65
2019-02-27T05:19:59.887Z,50.55
2019-02-27T05:20:59.866Z,51.37
2019-02-27T05:22:01.283Z,50.96
2019-02-27T05:23:00.362Z,51.04
2019-02-27T05:23:59.866Z,50.94
2019-02-27T05:24:59.859Z,51.15
2019-02-27T05:25:59.888Z,50.73
2019-02-27T05:27:00.863Z,50.01
2019-02-27T05:28:01.566Z,49.99
2019-02-27T05:28:59.860Z,49.37
2019-02-27T05:30:00.114Z,49.37
2019-02-27T05:30:59.890Z,48.95
2019-02-27T05:31:59.863Z,49.80
2019-02-27T05:33:02.069Z,49.68
2019-02-27T05:33:59.859Z,49.05
2019-02-27T05:34:59.046Z,48.33
2019-02-27T05:35:59.866Z,49.57
2019-02-27T05:37:05.079Z,49.47
2019-02-27T05:38:00.906Z,48.95
2019-02-27T05:38:57.907Z,48.44
2019-02-27T05:39:59.866Z,48.23
2019-02-27T05:41:00.599Z,48.02
2019-02-27T05:42:00.933Z,47.71
2019-02-27T05:42:59.375Z,47.92
2019-02-27T05:43:59.383Z,47.81
2019-02-27T05:44:59.363Z,48.23
2019-02-27T05:46:02.749Z,47.84
2019-02-27T05:46:59.364Z,48.54
2019-02-27T05:47:59.369Z,47.71
2019-02-27T05:48:59.358Z,47.92
2019-02-27T05:50:00.563Z,48.65
2019-02-27T05:50:59.366Z,47.94
2019-02-27T05:51:59.379Z,48.66
2019-02-27T05:52:59.370Z,49.08
2019-02-27T05:53:59.363Z,48.56
2019-02-27T05:54:59.362Z,49.08
2019-02-27T05:55:58.822Z,48.66
2019-02-27T05:56:59.359Z,49.08
2019-02-27T05:57:59.395Z,49.31
2019-02-27T05:58:59.373Z,49.29
2019-02-27T06:00:02.353Z,48.97
2019-02-27T06:00:59.361Z,49.41
2019-02-27T06:01:59.373Z,50.55
2019-02-27T06:02:59.390Z,50.55
2019-02-27T06:03:59.381Z,50.45
2019-02-27T06:04:59.750Z,51.07
2019-02-27T06:05:59.364Z,51.09
2019-02-27T06:07:00.375Z,50.89
2019-02-27T06:08:02.025Z,52.02
2019-02-27T06:08:59.386Z,51.50
2019-02-27T06:09:59.484Z,52.64
2019-02-27T06:10:59.377Z,52.33
2019-02-27T06:11:59.362Z,51.61
2019-02-27T06:12:59.375Z,51.71
2019-02-27T06:13:59.363Z,50.89
2019-02-27T06:14:59.424Z,51.19
2019-02-27T06:15:57.555Z,50.99
2019-02-27T06:16:57.647Z,50.37
2019-02-27T06:17:57.854Z,50.26
2019-02-27T06:18:57.583Z,50.55
2019-02-27T06:19:57.657Z,50.76
2019-02-27T06:20:57.507Z,50.78
2019-02-27T06:21:57.495Z,51.07
2019-02-27T06:22:58.074Z,51.68
2019-02-27T06:23:57.441Z,51.50
2019-02-27T06:24:57.428Z,51.71
2019-02-27T06:26:00.155Z,51.81
2019-02-27T06:26:59.403Z,50.89
2019-02-27T06:27:59.383Z,52.02
2019-02-27T06:28:59.507Z,50.89
2019-02-27T06:29:59.743Z,50.68
2019-02-27T06:30:58.377Z,50.57
2019-02-27T06:31:58.934Z,50.65
2019-02-27T06:32:58.903Z,49.21
2019-02-27T06:33:59.112Z,50.13
2019-02-27T06:34:59.449Z,49.72
2019-02-27T06:35:58.859Z,49.00
2019-02-27T06:36:58.859Z,49.91
2019-02-27T06:37:58.913Z,49.49
2019-02-27T06:39:00.448Z,49.18
2019-02-27T06:39:58.859Z,48.87
2019-02-27T06:40:59.448Z,48.36
2019-02-27T06:41:58.860Z,48.77
2019-02-27T06:42:58.873Z,48.05
2019-02-27T06:44:01.369Z,48.23
2019-02-27T06:44:58.869Z,48.54
2019-02-27T06:45:58.878Z,47.92
2019-02-27T06:46:58.860Z,47.41
2019-02-27T06:47:58.890Z,47.49
2019-02-27T06:48:58.900Z,47.81
2019-02-27T06:49:59.889Z,47.30
2019-02-27T06:51:00.969Z,47.17
2019-02-27T06:51:58.858Z,47.80
2019-02-27T06:52:58.873Z,48.10
2019-02-27T06:53:58.856Z,47.38
2019-02-27T06:54:58.856Z,46.66
2019-02-27T06:56:02.972Z,46.45
2019-02-27T06:56:58.856Z,45.29
2019-02-27T06:57:58.857Z,45.92
2019-02-27T06:58:58.881Z,44.68
2019-02-27T07:00:02.147Z,44.66
2019-02-27T07:00:58.876Z,44.99
2019-02-27T07:01:58.903Z,44.14
2019-02-27T07:02:58.884Z,44.56
2019-02-27T07:03:58.878Z,44.66
2019-02-27T07:04:58.886Z,44.76
2019-02-27T07:05:57.874Z,43.63
2019-02-27T07:07:00.562Z,44.04
2019-02-27T07:07:58.898Z,44.84
2019-02-27T07:08:58.860Z,44.76
2019-02-27T07:09:58.898Z,44.64
2019-02-27T07:11:09.903Z,44.76
2019-02-27T07:11:58.860Z,44.32
2019-02-27T07:12:58.913Z,43.60
2019-02-27T07:13:57.907Z,43.71
2019-02-27T07:14:58.879Z,43.91
2019-02-27T07:15:58.869Z,44.72
2019-02-27T07:16:58.867Z,44.41
2019-02-27T07:17:58.252Z,45.95
2019-02-27T07:18:58.355Z,45.75
2019-02-27T07:19:58.417Z,43.90
2019-02-27T07:20:59.194Z,43.69
2019-02-27T07:21:58.377Z,44.31
2019-02-27T07:22:58.434Z,43.69
2019-02-27T07:23:58.504Z,43.38
2019-02-27T07:24:58.359Z,43.79
2019-02-27T07:25:58.420Z,43.90
2019-02-27T07:26:58.377Z,43.59
2019-02-27T07:27:57.904Z,43.67
2019-02-27T07:28:58.378Z,42.66
2019-02-27T07:29:58.355Z,42.86
2019-02-27T07:30:58.387Z,43.26
2019-02-27T07:31:58.358Z,43.77
2019-02-27T07:32:58.370Z,44.29
2019-02-27T07:33:58.358Z,43.99
2019-02-27T07:34:58.613Z,44.39
2019-02-27T07:36:03.442Z,43.98
2019-02-27T07:36:58.357Z,43.77
2019-02-27T07:37:58.373Z,43.57
2019-02-27T07:38:58.387Z,43.46
2019-02-27T07:39:58.357Z,43.54
2019-02-27T07:40:58.356Z,43.77
2019-02-27T07:41:59.473Z,43.87
2019-02-27T07:42:58.375Z,43.57
2019-02-27T07:43:58.357Z,43.65
2019-02-27T07:44:58.367Z,43.44
2019-02-27T07:45:58.357Z,44.06
2019-02-27T07:46:58.385Z,43.24
2019-02-27T07:47:58.372Z,42.31
2019-02-27T07:48:58.357Z,42.62
2019-02-27T07:49:58.370Z,42.82
2019-02-27T07:50:58.357Z,42.19
2019-02-27T07:51:58.355Z,42.19
2019-02-27T07:52:58.427Z,42.60
2019-02-27T07:53:58.367Z,42.29
2019-02-27T07:54:58.357Z,43.12
2019-02-27T07:55:58.356Z,42.91
2019-02-27T07:56:58.358Z,42.17
2019-02-27T07:57:59.251Z,41.75
2019-02-27T07:58:57.399Z,42.17
2019-02-27T07:59:58.357Z,41.55
2019-02-27T08:00:58.369Z,42.05
2019-02-27T08:02:02.288Z,41.33
2019-02-27T08:02:58.372Z,41.63
2019-02-27T08:03:58.355Z,41.53
2019-02-27T08:04:56.394Z,41.33
2019-02-27T08:05:59.901Z,42.14
2019-02-27T08:06:57.869Z,42.66
2019-02-27T08:07:57.865Z,42.35
2019-02-27T08:08:57.884Z,42.97
2019-02-27T08:09:57.863Z,42.14
2019-02-27T08:10:56.456Z,41.74
2019-02-27T08:12:03.917Z,41.74
2019-02-27T08:12:57.909Z,42.13
2019-02-27T08:13:57.889Z,42.13
2019-02-27T08:14:59.742Z,41.51
2019-02-27T08:15:58.127Z,42.33
2019-02-27T08:16:57.909Z,42.74
2019-02-27T08:17:58.777Z,41.51
2019-02-27T08:18:58.914Z,42.13
2019-02-27T08:19:58.894Z,41.93
2019-02-27T08:20:58.896Z,42.72
2019-02-27T08:21:57.888Z,42.83
2019-02-27T08:22:56.802Z,42.93
2019-02-27T08:23:57.934Z,42.62
2019-02-27T08:24:58.011Z,42.52
2019-02-27T08:25:57.925Z,41.27
2019-02-27T08:26:57.893Z,41.68
2019-02-27T08:27:57.904Z,41.37
2019-02-27T08:28:56.115Z,42.48
2019-02-27T08:29:59.843Z,42.07
2019-02-27T08:30:58.898Z,41.35
2019-02-27T08:32:00.924Z,41.85
2019-02-27T08:32:57.934Z,41.64
2019-02-27T08:33:57.893Z,41.44
2019-02-27T08:34:56.103Z,41.74
2019-02-27T08:35:58.013Z,40.51
2019-02-27T08:36:57.890Z,41.52
2019-02-27T08:38:02.473Z,39.47
2019-02-27T08:38:58.888Z,38.65
2019-02-27T08:39:57.888Z,38.12
2019-02-27T08:40:58.481Z,38.73
2019-02-27T08:41:57.898Z,38.53
2019-02-27T08:42:58.267Z,39.02
2019-02-27T08:43:57.922Z,37.81
2019-02-27T08:44:57.058Z,36.77
2019-02-27T08:46:02.163Z,37.99
2019-02-27T08:46:55.921Z,35.95
2019-02-27T08:47:58.155Z,36.25
2019-02-27T08:48:57.901Z,36.65
2019-02-27T08:49:57.994Z,36.34
2019-02-27T08:50:58.405Z,36.24
2019-02-27T08:51:57.415Z,35.52
2019-02-27T08:52:57.819Z,37.16
2019-02-27T08:53:59.277Z,37.35
2019-02-27T08:54:57.394Z,36.43
2019-02-27T08:55:57.388Z,36.43
2019-02-27T08:56:57.416Z,36.32
2019-02-27T08:57:57.414Z,37.14
2019-02-27T08:58:55.790Z,37.86
2019-02-27T08:59:57.388Z,38.37
2019-02-27T09:00:57.401Z,37.76
2019-02-27T09:01:57.392Z,37.96
2019-02-27T09:03:02.529Z,38.78
2019-02-27T09:03:58.404Z,38.68
2019-02-27T09:04:55.743Z,38.37
2019-02-27T09:05:57.470Z,38.68
2019-02-27T09:07:02.334Z,38.47
2019-02-27T09:07:58.410Z,38.27
2019-02-27T09:08:57.419Z,38.35
2019-02-27T09:09:57.402Z,39.09
2019-02-27T09:10:57.395Z,39.17
2019-02-27T09:11:57.414Z,39.29
2019-02-27T09:13:05.062Z,38.06
2019-02-27T09:13:58.403Z,37.55
2019-02-27T09:14:57.391Z,36.83
2019-02-27T09:15:57.393Z,37.76
2019-02-27T09:16:57.410Z,37.84
2019-02-27T09:17:59.197Z,36.61
2019-02-27T09:18:57.391Z,37.43
2019-02-27T09:19:57.389Z,36.61
2019-02-27T09:20:57.466Z,36.72
2019-02-27T09:21:57.405Z,37.33
2019-02-27T09:22:57.430Z,39.15
2019-02-27T09:23:57.389Z,37.84
2019-02-27T09:24:57.391Z,37.31
2019-02-27T09:25:57.616Z,37.31
2019-02-27T09:26:57.410Z,38.64
2019-02-27T09:27:57.419Z,38.34
2019-02-27T09:28:57.509Z,39.05
2019-02-27T09:29:57.414Z,40.08
2019-02-27T09:30:56.488Z,39.26
2019-02-27T09:31:55.968Z,39.26
2019-02-27T09:32:57.407Z,38.03
2019-02-27T09:33:57.399Z,38.73
2019-02-27T09:34:59.613Z,37.82
2019-02-27T09:35:57.389Z,38.32
2019-02-27T09:36:56.054Z,35.66
2019-02-27T09:37:56.941Z,36.47
2019-02-27T09:38:57.586Z,36.38
2019-02-27T09:39:56.933Z,36.77
2019-02-27T09:40:56.893Z,36.36
2019-02-27T09:41:56.442Z,36.77
2019-02-27T09:42:57.001Z,38.09
2019-02-27T09:43:55.415Z,37.59
2019-02-27T09:44:56.701Z,39.22
2019-02-27T09:45:55.353Z,37.26
2019-02-27T09:46:55.309Z,37.67
2019-02-27T09:47:59.551Z,38.39
2019-02-27T09:48:56.266Z,38.28
2019-02-27T09:49:55.268Z,37.67
2019-02-27T09:50:57.075Z,38.48
2019-02-27T09:51:56.388Z,38.28
2019-02-27T09:52:55.273Z,39.71
2019-02-27T09:53:55.289Z,36.85
2019-02-27T09:54:55.964Z,35.93
2019-02-27T09:55:55.227Z,37.24
2019-02-27T09:56:55.309Z,37.04
2019-02-27T09:57:57.017Z,38.06
2019-02-27T09:58:57.063Z,38.37
2019-02-27T09:59:56.938Z,37.04
2019-02-27T10:01:00.327Z,37.02
2019-02-27T10:01:57.321Z,37.43
2019-02-27T10:02:55.190Z,36.61
2019-02-27T10:03:56.932Z,37.43
2019-02-27T10:05:01.477Z,36.71
2019-02-27T10:05:57.895Z,36.71
2019-02-27T10:06:56.907Z,37.63
2019-02-27T10:07:57.540Z,38.65
2019-02-27T10:08:59.022Z,38.84
2019-02-27T10:09:56.891Z,38.02
2019-02-27T10:10:56.894Z,38.23
2019-02-27T10:11:56.902Z,36.90
2019-02-27T10:12:56.895Z,36.70
2019-02-27T10:13:55.031Z,37.19
2019-02-27T10:14:56.953Z,36.68
2019-02-27T10:16:00.547Z,36.68
2019-02-27T10:16:56.928Z,36.99
2019-02-27T10:17:56.893Z,35.46
2019-02-27T10:18:56.906Z,35.24
2019-02-27T10:20:01.425Z,35.85
2019-02-27T10:20:57.932Z,36.25
2019-02-27T10:21:56.891Z,37.38
2019-02-27T10:22:55.894Z,35.54
2019-02-27T10:23:57.410Z,36.05
2019-02-27T10:24:55.875Z,35.34
2019-02-27T10:25:57.395Z,35.14
2019-02-27T10:26:56.395Z,38.49
2019-02-27T10:27:56.395Z,37.16
2019-02-27T10:28:56.394Z,35.34
2019-02-27T10:29:56.442Z,36.55
2019-02-27T10:30:57.399Z,36.95
2019-02-27T10:31:58.233Z,38.17
2019-02-27T10:32:55.688Z,37.05
2019-02-27T10:33:56.399Z,37.16
2019-02-27T10:34:58.330Z,37.85
2019-02-27T10:35:56.411Z,36.71
2019-02-27T10:36:56.448Z,36.92
2019-02-27T10:37:56.509Z,36.51
2019-02-27T10:38:56.416Z,35.60
2019-02-27T10:39:56.430Z,33.97
2019-02-27T10:40:55.110Z,33.15
2019-02-27T10:41:56.637Z,33.56
2019-02-27T10:42:57.171Z,32.53
2019-02-27T10:43:56.671Z,32.53
2019-02-27T10:44:55.962Z,33.04
2019-02-27T10:45:55.503Z,33.14
2019-02-27T10:46:57.252Z,34.56
2019-02-27T10:47:57.732Z,34.26
2019-02-27T10:48:55.402Z,33.94
2019-02-27T10:49:56.577Z,32.71
2019-02-27T10:50:54.613Z,32.50
2019-02-27T10:51:54.659Z,32.70
2019-02-27T10:52:54.596Z,33.31
2019-02-27T10:53:54.629Z,33.11
2019-02-27T10:54:55.445Z,33.21
2019-02-27T10:55:56.112Z,34.53
2019-02-27T10:56:56.329Z,34.02
2019-02-27T10:57:55.705Z,33.72
2019-02-27T10:58:55.296Z,32.89
2019-02-27T10:59:55.734Z,33.82
2019-02-27T11:00:54.874Z,32.40
2019-02-27T11:01:54.597Z,32.38
2019-02-27T11:02:54.575Z,32.89
2019-02-27T11:03:54.977Z,32.89
2019-02-27T11:04:55.551Z,32.59
2019-02-27T11:05:55.567Z,31.47
2019-02-27T11:06:55.440Z,30.66
2019-02-27T11:07:54.678Z,30.96
2019-02-27T11:08:55.292Z,29.85
2019-02-27T11:09:54.678Z,31.06
2019-02-27T11:10:54.416Z,32.28
2019-02-27T11:11:54.657Z,30.04
2019-02-27T11:12:54.402Z,31.98
2019-02-27T11:13:55.585Z,33.07
2019-02-27T11:14:55.693Z,31.56
2019-02-27T11:15:55.899Z,32.06
2019-02-27T11:16:54.782Z,31.15
2019-02-27T11:17:54.516Z,32.77
2019-02-27T11:18:55.621Z,33.28
2019-02-27T11:19:54.455Z,32.37
2019-02-27T11:20:55.932Z,32.57
2019-02-27T11:21:58.385Z,32.87
2019-02-27T11:22:55.958Z,33.97
2019-02-27T11:23:55.925Z,32.96
2019-02-27T11:24:55.953Z,32.96
2019-02-27T11:25:57.013Z,31.63
2019-02-27T11:26:56.973Z,32.86
2019-02-27T11:27:55.914Z,32.95
2019-02-27T11:28:57.732Z,32.95
2019-02-27T11:29:59.303Z,32.74
2019-02-27T11:30:57.917Z,32.51
2019-02-27T11:31:54.962Z,31.57
2019-02-27T11:32:57.804Z,30.91
2019-02-27T11:33:56.003Z,30.04
2019-02-27T11:34:55.898Z,28.07
2019-02-27T11:35:55.905Z,27.41
2019-02-27T11:36:55.938Z,24.87
2019-02-27T11:37:55.918Z,25.65
2019-02-27T11:38:56.666Z,23.80
2019-02-27T11:39:55.908Z,24.49
2019-02-27T11:40:55.908Z,24.58
2019-02-27T11:41:55.918Z,22.58
2019-02-27T11:42:55.909Z,23.58
2019-02-27T11:43:55.988Z,23.47
2019-02-27T11:44:55.904Z,23.07
2019-02-27T11:45:58.129Z,23.60
2019-02-27T11:46:58.953Z,23.19
2019-02-27T11:47:55.923Z,22.11
2019-02-27T11:48:57.020Z,23.69
2019-02-27T11:49:55.903Z,23.68
2019-02-27T11:50:55.933Z,22.75
2019-02-27T11:51:57.066Z,23.04
2019-02-27T11:52:55.917Z,22.21
2019-02-27T11:53:55.907Z,21.81
2019-02-27T11:54:55.904Z,22.40
2019-02-27T11:55:55.401Z,22.29
2019-02-27T11:56:57.072Z,21.09
2019-02-27T11:57:55.416Z,22.18
2019-02-27T11:58:55.413Z,21.08
2019-02-27T11:59:55.406Z,20.97
2019-02-27T12:00:56.401Z,20.65
2019-02-27T12:01:56.153Z,21.44
2019-02-27T12:02:55.444Z,21.03
2019-02-27T12:03:55.410Z,20.25
2019-02-27T12:04:56.643Z,20.24
2019-02-27T12:05:55.412Z,19.45
2019-02-27T12:06:55.405Z,20.14
2019-02-27T12:07:55.413Z,19.54
2019-02-27T12:08:59.494Z,19.35
2019-02-27T12:09:55.406Z,20.65
2019-02-27T12:10:55.406Z,21.15
2019-02-27T12:11:55.402Z,21.85
2019-02-27T12:12:59.559Z,20.36
2019-02-27T12:13:56.405Z,21.04
2019-02-27T12:14:55.418Z,20.95
2019-02-27T12:15:55.404Z,22.03
2019-02-27T12:16:55.422Z,22.13
2019-02-27T12:17:59.704Z,21.23
2019-02-27T12:18:55.404Z,21.63
2019-02-27T12:19:55.409Z,20.14
2019-02-27T12:20:55.434Z,20.24
2019-02-27T12:21:59.457Z,21.12
2019-02-27T12:22:55.418Z,21.43
2019-02-27T12:23:55.407Z,20.65
2019-02-27T12:24:55.407Z,21.14
2019-02-27T12:25:55.418Z,20.35
2019-02-27T12:26:56.494Z,20.54
2019-02-27T12:27:55.417Z,21.05
2019-02-27T12:28:55.405Z,22.05
2019-02-27T12:29:53.538Z,20.75
2019-02-27T12:30:55.406Z,21.73
2019-02-27T12:31:55.416Z,21.61
2019-02-27T12:32:56.619Z,20.81
2019-02-27T12:33:54.539Z,20.20
2019-02-27T12:34:56.438Z,20.20
2019-02-27T12:35:55.406Z,20.01
2019-02-27T12:36:55.416Z,20.89
2019-02-27T12:37:55.179Z,20.60
2019-02-27T12:38:55.415Z,20.79
2019-02-27T12:39:55.454Z,21.00
2019-02-27T12:40:58.441Z,20.50
2019-02-27T12:41:55.048Z,20.60
2019-02-27T12:42:54.914Z,20.40
2019-02-27T12:43:54.914Z,20.79
2019-02-27T12:44:54.955Z,20.60
2019-02-27T12:46:00.590Z,20.39
2019-02-27T12:46:54.387Z,20.09
2019-02-27T12:47:54.909Z,20.00
2019-02-27T12:48:54.946Z,20.18
2019-02-27T12:49:54.999Z,19.78
2019-02-27T12:50:55.917Z,19.57
2019-02-27T12:51:54.924Z,19.96